createdAt,value
2022-07-30T00:01:40.340Z,4.70
2022-07-30T00:04:04.388Z,6.20
2022-07-30T00:06:28.433Z,6.18
2022-07-30T00:08:51.953Z,6.47
2022-07-30T00:11:15.688Z,7.65
2022-07-30T00:13:39.308Z,4.85
2022-07-30T00:16:04.452Z,7.10
2022-07-30T00:18:27.984Z,6.05
2022-07-30T00:20:51.552Z,4.95
2022-07-30T00:23:15.515Z,8.35
2022-07-30T00:25:39.178Z,6.22
2022-07-30T00:28:02.765Z,7.68
2022-07-30T00:30:26.688Z,8.73
2022-07-30T00:32:52.167Z,5.28
2022-07-30T00:35:15.857Z,6.30
2022-07-30T00:37:39.997Z,5.90
2022-07-30T00:40:03.631Z,5.82
2022-07-30T00:42:39.732Z,6.50
2022-07-30T00:45:03.365Z,6.25
2022-07-30T00:47:27.198Z,9.20
2022-07-30T00:49:52.103Z,6.60
2022-07-30T00:52:15.853Z,6.40
2022-07-30T00:54:39.495Z,8.55
2022-07-30T00:57:03.586Z,7.47
2022-07-30T00:59:28.606Z,7.38
2022-07-30T01:01:52.710Z,6.25
2022-07-30T01:04:16.327Z,8.65
2022-07-30T01:06:42.249Z,8.82
2022-07-30T01:09:06.348Z,12.07
2022-07-30T01:11:37.552Z,9.73
2022-07-30T01:14:01.320Z,7.75
2022-07-30T01:16:25.039Z,8.45
2022-07-30T01:19:06.550Z,6.80
2022-07-30T01:21:36.537Z,8.10
2022-07-30T01:24:22.534Z,12.70
2022-07-30T01:26:48.630Z,9.57
2022-07-30T01:29:14.750Z,9.10
2022-07-30T01:31:39.513Z,9.80
2022-07-30T01:34:04.612Z,10.52
2022-07-30T01:36:30.025Z,9.65
2022-07-30T01:38:54.879Z,9.95
2022-07-30T01:41:20.972Z,9.25
2022-07-30T01:43:47.345Z,11.25
2022-07-30T01:46:12.148Z,9.65
2022-07-30T01:48:41.473Z,12.60
2022-07-30T01:51:08.123Z,11.90
2022-07-30T01:53:34.464Z,9.68
2022-07-30T01:55:59.598Z,10.27
2022-07-30T01:58:26.860Z,8.40
2022-07-30T02:00:56.619Z,9.93
2022-07-30T02:03:22.001Z,9.00
2022-07-30T02:05:54.819Z,11.07
2022-07-30T02:08:28.363Z,9.20
2022-07-30T02:10:59.197Z,12.88
2022-07-30T02:13:25.837Z,12.95
2022-07-30T02:15:56.390Z,10.27
2022-07-30T02:18:26.600Z,10.05
2022-07-30T02:21:07.360Z,9.98
2022-07-30T02:23:38.017Z,11.40
2022-07-30T02:26:03.812Z,12.88
2022-07-30T02:28:29.594Z,10.10
2022-07-30T02:31:00.391Z,10.57
2022-07-30T02:33:28.798Z,10.75
2022-07-30T02:35:53.611Z,9.10
2022-07-30T02:38:19.433Z,11.02
2022-07-30T02:40:44.925Z,11.52
2022-07-30T02:43:08.498Z,10.55
2022-07-30T02:45:32.657Z,10.85
2022-07-30T02:48:01.210Z,9.65
2022-07-30T02:50:26.270Z,10.10
2022-07-30T02:52:53.299Z,13.18
2022-07-30T02:55:19.268Z,9.93
2022-07-30T02:57:44.324Z,12.68
2022-07-30T03:00:10.083Z,11.00
2022-07-30T03:02:36.409Z,11.40
2022-07-30T03:05:07.934Z,10.60
2022-07-30T03:07:33.253Z,12.63
2022-07-30T03:09:58.243Z,10.32
2022-07-30T03:12:27.218Z,15.63
2022-07-30T03:14:51.818Z,13.98
2022-07-30T03:17:17.883Z,11.63
2022-07-30T03:19:42.928Z,12.00
2022-07-30T03:22:09.778Z,12.32
2022-07-30T03:24:35.222Z,12.10
2022-07-30T03:27:01.002Z,13.80
2022-07-30T03:29:27.618Z,11.88
2022-07-30T03:31:51.991Z,12.50
2022-07-30T03:34:19.092Z,12.18
2022-07-30T03:36:43.758Z,13.15
2022-07-30T03:39:09.646Z,13.07
2022-07-30T03:41:35.044Z,12.52
2022-07-30T03:44:00.684Z,14.65
2022-07-30T03:46:24.615Z,15.93
2022-07-30T03:48:49.353Z,16.65
2022-07-30T03:51:14.022Z,14.38
2022-07-30T03:53:41.875Z,16.42
2022-07-30T03:56:25.667Z,18.17
2022-07-30T03:59:01.625Z,17.88
2022-07-30T04:01:26.907Z,15.93
2022-07-30T04:03:54.397Z,17.10
2022-07-30T04:06:19.023Z,16.00
2022-07-30T04:08:42.589Z,21.70
2022-07-30T04:11:06.357Z,16.63
2022-07-30T04:13:43.565Z,16.20
2022-07-30T04:16:38.923Z,18.75
2022-07-30T04:19:01.489Z,20.83
2022-07-30T04:21:26.963Z,26.83
2022-07-30T04:24:03.029Z,25.25
2022-07-30T04:26:29.295Z,24.52
2022-07-30T04:28:54.458Z,24.65
2022-07-30T04:31:18.514Z,23.40
2022-07-30T04:33:42.484Z,28.23
2022-07-30T04:36:17.133Z,29.55
2022-07-30T04:38:40.805Z,30.90
2022-07-30T04:41:04.698Z,25.75
2022-07-30T04:43:45.463Z,27.13
2022-07-30T04:46:10.444Z,27.35
2022-07-30T04:48:34.101Z,26.50
2022-07-30T04:51:15.124Z,32.85
2022-07-30T04:53:40.038Z,33.20
2022-07-30T04:56:05.844Z,25.85
2022-07-30T04:58:30.028Z,29.10
2022-07-30T05:00:56.764Z,29.08
2022-07-30T05:03:27.600Z,30.23
2022-07-30T05:05:57.108Z,33.90
2022-07-30T05:08:22.369Z,30.73
2022-07-30T05:10:46.269Z,24.98
2022-07-30T05:13:14.329Z,31.85
2022-07-30T05:15:38.824Z,30.60
2022-07-30T05:18:04.916Z,29.75
2022-07-30T05:20:33.196Z,26.35
2022-07-30T05:23:17.567Z,27.88
2022-07-30T05:25:48.275Z,31.65
2022-07-30T05:28:14.855Z,28.65
2022-07-30T05:30:39.737Z,26.80
2022-07-30T05:33:15.526Z,28.83
2022-07-30T05:35:41.558Z,31.92
2022-07-30T05:38:05.255Z,31.58
2022-07-30T05:40:39.110Z,29.10
2022-07-30T05:43:22.667Z,28.73
2022-07-30T05:45:46.319Z,25.08
2022-07-30T05:48:09.918Z,27.05
2022-07-30T05:50:33.535Z,31.08
2022-07-30T05:52:58.605Z,26.35
2022-07-30T05:56:00.639Z,27.67
2022-07-30T05:58:43.371Z,28.48
2022-07-30T06:01:10.324Z,27.58
2022-07-30T06:03:36.154Z,26.88
2022-07-30T06:06:23.109Z,28.85
2022-07-30T06:08:50.126Z,26.52
2022-07-30T06:11:14.292Z,26.33
2022-07-30T06:13:39.243Z,26.33
2022-07-30T06:16:03.580Z,25.45
2022-07-30T06:18:27.261Z,28.25
2022-07-30T06:20:52.038Z,24.75
2022-07-30T06:23:18.684Z,26.38
2022-07-30T06:26:07.453Z,25.58
2022-07-30T06:28:39.546Z,24.60
2022-07-30T06:31:26.348Z,23.17
2022-07-30T06:33:50.170Z,23.13
2022-07-30T06:36:14.785Z,21.77
2022-07-30T06:38:59.684Z,22.58
2022-07-30T06:41:47.538Z,21.15
2022-07-30T06:44:11.708Z,18.90
2022-07-30T06:46:53.475Z,18.75
2022-07-30T06:49:21.303Z,21.23
2022-07-30T06:51:46.000Z,18.60
2022-07-30T06:54:09.724Z,18.83
2022-07-30T06:56:33.296Z,19.63
2022-07-30T06:59:02.529Z,18.85
2022-07-30T07:01:45.090Z,15.02
2022-07-30T07:04:09.349Z,14.93
2022-07-30T07:06:35.398Z,18.30
2022-07-30T07:08:59.019Z,13.43
2022-07-30T07:11:30.886Z,16.70
2022-07-30T07:14:00.310Z,16.40
2022-07-30T07:16:32.643Z,18.77
2022-07-30T07:19:02.965Z,16.15
2022-07-30T07:21:26.844Z,14.23
2022-07-30T07:23:52.695Z,17.02
2022-07-30T07:26:34.489Z,15.68
2022-07-30T07:29:01.061Z,14.43
2022-07-30T07:32:05.343Z,18.58
2022-07-30T07:34:16.989Z,14.77
2022-07-30T07:36:41.010Z,15.63
2022-07-30T07:39:09.687Z,14.57
2022-07-30T07:41:48.672Z,12.85
2022-07-30T07:44:16.944Z,12.75
2022-07-30T07:46:40.759Z,11.95
2022-07-30T07:49:04.476Z,13.82
2022-07-30T07:51:48.376Z,18.25
2022-07-30T07:54:23.352Z,13.05
2022-07-30T07:56:51.656Z,14.25
2022-07-30T07:59:20.456Z,14.88
2022-07-30T08:01:46.603Z,16.45
2022-07-30T08:04:14.091Z,14.80
2022-07-30T08:07:05.365Z,12.35
2022-07-30T08:09:50.841Z,14.55
2022-07-30T08:12:34.736Z,13.43
2022-07-30T08:15:21.532Z,14.00
2022-07-30T08:18:04.115Z,15.90
2022-07-30T08:20:41.354Z,14.63
2022-07-30T08:23:08.064Z,12.98
2022-07-30T08:25:32.092Z,10.80
2022-07-30T08:27:55.999Z,14.43
2022-07-30T08:30:19.778Z,16.58
2022-07-30T08:32:43.604Z,13.65
2022-07-30T08:35:09.567Z,12.38
2022-07-30T08:37:33.295Z,7.72
2022-07-30T08:39:58.742Z,11.93
2022-07-30T08:42:23.598Z,9.02
2022-07-30T08:44:48.539Z,12.38
2022-07-30T08:47:19.415Z,10.32
2022-07-30T08:50:06.938Z,9.13
2022-07-30T08:52:34.144Z,9.90
2022-07-30T08:54:59.313Z,9.27
2022-07-30T08:57:23.552Z,9.38
2022-07-30T08:59:59.179Z,9.98
2022-07-30T09:02:27.701Z,9.52
2022-07-30T09:04:58.223Z,11.70
2022-07-30T09:07:21.880Z,10.68
2022-07-30T09:09:45.533Z,13.38
2022-07-30T09:12:35.913Z,11.98
2022-07-30T09:15:08.233Z,8.65
2022-07-30T09:17:56.353Z,13.15
2022-07-30T09:20:24.431Z,13.02
2022-07-30T09:22:49.887Z,12.45
2022-07-30T09:25:37.928Z,8.20
2022-07-30T09:28:31.234Z,9.40
2022-07-30T09:31:15.683Z,11.63
2022-07-30T09:33:57.905Z,8.80
2022-07-30T09:36:40.484Z,8.00
2022-07-30T09:39:30.912Z,9.15
2022-07-30T09:42:20.639Z,9.70
2022-07-30T09:44:46.583Z,8.07
2022-07-30T09:47:10.230Z,10.20
2022-07-30T09:49:37.353Z,9.13
2022-07-30T09:52:01.723Z,6.07
2022-07-30T09:54:51.187Z,7.10
2022-07-30T09:57:25.894Z,11.25
2022-07-30T09:59:55.175Z,4.80
2022-07-30T10:02:19.469Z,6.38
2022-07-30T10:05:14.586Z,7.35
2022-07-30T10:07:42.939Z,6.93
2022-07-30T10:10:09.650Z,6.43
2022-07-30T10:12:35.782Z,6.40
2022-07-30T10:15:07.765Z,5.65
2022-07-30T10:17:34.321Z,4.85
2022-07-30T10:20:29.142Z,7.00
2022-07-30T10:23:29.755Z,4.18
2022-07-30T10:26:36.054Z,7.95
2022-07-30T10:29:21.265Z,7.13
2022-07-30T10:31:58.855Z,9.95
2022-07-30T10:34:23.782Z,6.05
2022-07-30T10:36:54.149Z,6.97
2022-07-30T10:39:22.759Z,9.18
2022-07-30T10:42:03.348Z,5.82
2022-07-30T10:44:49.496Z,8.13
2022-07-30T10:47:18.626Z,6.38
2022-07-30T10:49:43.344Z,10.45
2022-07-30T10:52:07.432Z,6.75
2022-07-30T10:54:54.859Z,5.82
2022-07-30T10:57:31.926Z,8.95
2022-07-30T11:00:15.431Z,4.72
2022-07-30T11:03:22.055Z,5.03
2022-07-30T11:05:50.840Z,4.25
2022-07-30T11:08:36.317Z,5.13
2022-07-30T11:11:19.812Z,5.40
2022-07-30T11:13:54.599Z,4.63
2022-07-30T11:16:20.428Z,6.18
2022-07-30T11:19:55.190Z,7.85
2022-07-30T11:22:27.372Z,8.15
2022-07-30T11:24:51.474Z,6.78
2022-07-30T11:27:37.572Z,5.10
2022-07-30T11:30:02.455Z,4.93
2022-07-30T11:32:32.413Z,3.80
2022-07-30T11:35:18.020Z,5.35
2022-07-30T11:38:01.901Z,4.50
2022-07-30T11:40:26.937Z,4.07
2022-07-30T11:42:50.830Z,2.55
2022-07-30T11:45:29.649Z,8.95
2022-07-30T11:47:55.795Z,6.13
2022-07-30T11:50:23.720Z,4.22
2022-07-30T11:52:51.226Z,3.88
2022-07-30T11:55:25.196Z,3.88
2022-07-30T11:57:48.811Z,3.67
2022-07-30T12:00:13.367Z,2.67
2022-07-30T12:02:39.612Z,4.18
2022-07-30T12:05:04.533Z,2.55
2022-07-30T12:07:29.694Z,3.63
2022-07-30T12:09:53.442Z,3.55
2022-07-30T12:12:23.680Z,3.13
2022-07-30T12:14:47.297Z,3.15
2022-07-30T12:17:15.223Z,2.78
2022-07-30T12:19:49.093Z,5.22
2022-07-30T12:22:12.974Z,3.17
2022-07-30T12:24:37.973Z,3.80
2022-07-30T12:27:06.962Z,3.47
2022-07-30T12:29:32.170Z,5.38
2022-07-30T12:31:55.805Z,4.65
2022-07-30T12:34:24.122Z,3.55
2022-07-30T12:36:47.936Z,6.55
2022-07-30T12:39:21.370Z,4.35
2022-07-30T12:41:48.919Z,4.88
2022-07-30T12:44:12.791Z,3.53
2022-07-30T12:46:41.378Z,5.25
2022-07-30T12:49:12.850Z,2.67
2022-07-30T12:51:59.806Z,3.83
2022-07-30T12:54:24.228Z,3.53
2022-07-30T12:57:00.678Z,2.70
2022-07-30T12:59:26.006Z,4.28
2022-07-30T13:01:50.219Z,4.82
2022-07-30T13:04:15.384Z,3.40
2022-07-30T13:06:42.092Z,2.80
2022-07-30T13:09:06.443Z,4.38
2022-07-30T13:11:40.645Z,4.35
2022-07-30T13:14:05.789Z,3.08
2022-07-30T13:16:33.207Z,4.90
2022-07-30T13:18:56.688Z,2.90
2022-07-30T13:21:20.211Z,3.83
2022-07-30T13:23:44.057Z,2.55
2022-07-30T13:26:09.577Z,6.70
2022-07-30T13:28:34.648Z,2.90
2022-07-30T13:31:00.525Z,3.78
2022-07-30T13:33:24.215Z,2.65
2022-07-30T13:35:48.195Z,3.67
2022-07-30T13:38:13.613Z,4.22
2022-07-30T13:40:37.190Z,4.63
2022-07-30T13:43:01.104Z,4.55
2022-07-30T13:45:24.723Z,4.00
2022-07-30T13:47:49.715Z,2.60
2022-07-30T13:50:13.418Z,3.15
2022-07-30T13:52:37.177Z,1.98
2022-07-30T13:55:00.829Z,2.72
2022-07-30T13:57:24.340Z,11.05
2022-07-30T13:59:48.176Z,5.50
2022-07-30T14:02:11.810Z,3.97
2022-07-30T14:04:36.833Z,2.08
2022-07-30T14:07:00.793Z,3.80
2022-07-30T14:09:24.689Z,4.78
2022-07-30T14:11:48.349Z,2.25
2022-07-30T14:14:12.070Z,5.20
2022-07-30T14:16:45.137Z,3.05
2022-07-30T14:19:09.488Z,1.65
2022-07-30T14:21:48.570Z,4.68
2022-07-30T14:24:13.856Z,2.42
2022-07-30T14:26:37.477Z,3.72
2022-07-30T14:29:01.149Z,1.77
2022-07-30T14:31:24.759Z,4.57
2022-07-30T14:33:48.401Z,3.10
2022-07-30T14:36:12.245Z,2.67
2022-07-30T14:38:39.842Z,2.45
2022-07-30T14:41:03.477Z,4.25
2022-07-30T14:43:27.919Z,3.03
2022-07-30T14:45:53.500Z,2.72
2022-07-30T14:48:17.177Z,3.33
2022-07-30T14:51:03.449Z,5.05
2022-07-30T14:53:24.417Z,3.75
2022-07-30T14:55:49.522Z,4.53
2022-07-30T14:58:13.241Z,4.20
2022-07-30T15:00:48.936Z,3.83
2022-07-30T15:03:12.746Z,4.97
2022-07-30T15:05:36.454Z,5.55
2022-07-30T15:08:00.087Z,3.40
2022-07-30T15:10:23.889Z,3.83
2022-07-30T15:12:50.274Z,2.95
2022-07-30T15:15:14.706Z,2.30
2022-07-30T15:17:39.715Z,3.38
2022-07-30T15:20:03.268Z,5.90
2022-07-30T15:22:26.802Z,7.68
2022-07-30T15:24:50.939Z,2.05
2022-07-30T15:27:14.597Z,2.40
2022-07-30T15:29:39.804Z,3.03
2022-07-30T15:32:07.291Z,4.35
2022-07-30T15:34:34.587Z,6.85
2022-07-30T15:36:58.302Z,2.90
2022-07-30T15:39:22.031Z,3.70
2022-07-30T15:41:45.929Z,1.90
2022-07-30T15:44:09.684Z,2.42
2022-07-30T15:46:34.915Z,4.35
2022-07-30T15:48:58.503Z,3.40
2022-07-30T15:51:22.289Z,2.13
2022-07-30T15:53:45.977Z,2.85
2022-07-30T15:56:09.681Z,3.13
2022-07-30T15:58:33.600Z,3.45
2022-07-30T16:00:57.624Z,9.00
2022-07-30T16:03:23.005Z,2.92
2022-07-30T16:05:51.119Z,6.00
2022-07-30T16:08:17.022Z,4.40
2022-07-30T16:10:41.934Z,4.32
2022-07-30T16:13:05.694Z,4.70
2022-07-30T16:15:29.442Z,3.20
2022-07-30T16:17:53.103Z,2.55
2022-07-30T16:20:18.034Z,3.72
2022-07-30T16:22:41.640Z,3.08
2022-07-30T16:25:06.110Z,4.53
2022-07-30T16:27:29.729Z,4.22
2022-07-30T16:29:53.273Z,5.93
2022-07-30T16:32:16.868Z,2.40
2022-07-30T16:34:40.393Z,6.45
2022-07-30T16:37:06.029Z,4.22
2022-07-30T16:39:30.016Z,5.53
2022-07-30T16:41:53.668Z,3.28
2022-07-30T16:44:17.215Z,4.55
2022-07-30T16:46:40.891Z,6.43
2022-07-30T16:49:04.639Z,5.07
2022-07-30T16:51:28.424Z,6.38
2022-07-30T16:53:53.451Z,6.28
2022-07-30T16:56:17.258Z,1.95
2022-07-30T16:58:40.780Z,3.03
2022-07-30T17:01:04.511Z,2.90
2022-07-30T17:03:28.318Z,3.25
2022-07-30T17:05:52.081Z,4.35
2022-07-30T17:08:17.617Z,2.45
2022-07-30T17:10:42.940Z,7.78
2022-07-30T17:13:07.610Z,2.65
2022-07-30T17:15:32.489Z,2.75
2022-07-30T17:17:57.108Z,4.38
2022-07-30T17:20:21.023Z,2.65
2022-07-30T17:22:45.160Z,5.50
2022-07-30T17:25:10.444Z,5.07
2022-07-30T17:27:35.725Z,2.17
2022-07-30T17:29:59.872Z,3.78
2022-07-30T17:32:23.865Z,4.25
2022-07-30T17:34:47.777Z,4.88
2022-07-30T17:37:11.442Z,3.28
2022-07-30T17:40:18.771Z,1.80
2022-07-30T17:42:19.199Z,3.42
2022-07-30T17:44:44.716Z,3.75
2022-07-30T17:47:14.345Z,5.75
2022-07-30T17:49:38.675Z,2.08
2022-07-30T17:52:02.380Z,3.85
2022-07-30T17:54:26.234Z,3.83
2022-07-30T17:56:49.960Z,3.00
2022-07-30T17:59:14.050Z,2.58
2022-07-30T18:01:39.481Z,3.22
2022-07-30T18:04:03.215Z,3.00
2022-07-30T18:06:27.037Z,4.65
2022-07-30T18:08:50.747Z,4.15
2022-07-30T18:11:14.446Z,3.72
2022-07-30T18:13:38.134Z,3.42
2022-07-30T18:16:01.826Z,2.08
2022-07-30T18:18:27.417Z,2.42
2022-07-30T18:20:51.121Z,3.72
2022-07-30T18:23:16.275Z,3.53
2022-07-30T18:25:51.695Z,2.55
2022-07-30T18:28:16.681Z,2.38
2022-07-30T18:30:41.192Z,2.30
2022-07-30T18:33:04.910Z,7.07
2022-07-30T18:35:29.893Z,6.10
2022-07-30T18:37:53.484Z,5.28
2022-07-30T18:40:23.671Z,3.63
2022-07-30T18:42:48.127Z,3.65
2022-07-30T18:45:14.103Z,2.00
2022-07-30T18:47:37.792Z,3.30
2022-07-30T18:50:01.585Z,3.92
2022-07-30T18:52:26.573Z,6.57
2022-07-30T18:54:50.443Z,4.20
2022-07-30T18:57:14.628Z,4.60
2022-07-30T18:59:38.349Z,3.30
2022-07-30T19:02:02.201Z,2.67
2022-07-30T19:04:26.121Z,3.53
2022-07-30T19:06:49.833Z,3.95
2022-07-30T19:09:17.622Z,3.20
2022-07-30T19:11:42.504Z,4.78
2022-07-30T19:14:06.165Z,3.65
2022-07-30T19:16:30.170Z,5.25
2022-07-30T19:18:53.781Z,9.27
2022-07-30T19:21:17.480Z,3.70
2022-07-30T19:23:41.173Z,2.42
2022-07-30T19:26:06.100Z,5.18
2022-07-30T19:28:29.779Z,6.20
2022-07-30T19:30:53.441Z,5.05
2022-07-30T19:33:16.935Z,3.65
2022-07-30T19:35:41.043Z,3.22
2022-07-30T19:38:04.615Z,7.75
2022-07-30T19:40:28.372Z,4.57
2022-07-30T19:42:56.616Z,5.50
2022-07-30T19:45:22.389Z,3.85
2022-07-30T19:47:46.027Z,3.67
2022-07-30T19:50:11.758Z,3.78
2022-07-30T19:52:35.726Z,2.20
2022-07-30T19:54:59.910Z,3.63
2022-07-30T19:57:23.426Z,3.08
2022-07-30T20:00:10.813Z,5.50
2022-07-30T20:02:37.606Z,6.25
2022-07-30T20:05:06.140Z,3.90
2022-07-30T20:07:35.605Z,5.63
2022-07-30T20:09:59.227Z,2.85
2022-07-30T20:12:24.207Z,4.43
2022-07-30T20:14:48.031Z,3.03
2022-07-30T20:17:14.497Z,3.15
2022-07-30T20:19:39.316Z,3.10
2022-07-30T20:22:12.214Z,3.78
2022-07-30T20:24:37.107Z,3.58
2022-07-30T20:27:01.784Z,2.95
2022-07-30T20:29:45.794Z,3.67
2022-07-30T20:32:10.033Z,2.75
2022-07-30T20:34:35.965Z,3.55
2022-07-30T20:37:13.878Z,2.55
2022-07-30T20:39:41.315Z,2.53
2022-07-30T20:42:12.279Z,3.05
2022-07-30T20:44:37.694Z,4.57
2022-07-30T20:47:01.361Z,4.15
2022-07-30T20:49:35.760Z,4.15
2022-07-30T20:51:59.902Z,3.58
2022-07-30T20:54:24.456Z,2.85
2022-07-30T20:56:48.147Z,2.72
2022-07-30T20:59:12.555Z,4.05
2022-07-30T21:01:36.579Z,2.10
2022-07-30T21:04:00.145Z,4.57
2022-07-30T21:06:26.289Z,2.58
2022-07-30T21:08:49.919Z,3.53
2022-07-30T21:11:14.589Z,4.72
2022-07-30T21:13:38.213Z,4.13
2022-07-30T21:16:03.465Z,3.83
2022-07-30T21:18:27.192Z,4.45
2022-07-30T21:20:50.843Z,2.47
2022-07-30T21:23:20.719Z,2.92
2022-07-30T21:26:01.053Z,3.92
2022-07-30T21:28:27.573Z,4.82
2022-07-30T21:30:52.375Z,4.20
2022-07-30T21:33:15.962Z,3.05
2022-07-30T21:35:39.630Z,4.65
2022-07-30T21:38:05.049Z,4.25
2022-07-30T21:40:33.883Z,4.80
2022-07-30T21:42:57.696Z,4.43
2022-07-30T21:45:21.276Z,4.68
2022-07-30T21:47:47.879Z,4.40
2022-07-30T21:50:12.128Z,4.75
2022-07-30T21:52:36.129Z,6.18
2022-07-30T21:55:04.244Z,5.53
2022-07-30T21:57:30.233Z,5.22
2022-07-30T21:59:54.974Z,4.72
2022-07-30T22:02:19.785Z,7.60
2022-07-30T22:04:45.375Z,3.05
2022-07-30T22:07:11.208Z,4.18
2022-07-30T22:09:35.598Z,3.80
2022-07-30T22:12:00.854Z,3.67
2022-07-30T22:14:27.050Z,4.65
2022-07-30T22:16:50.804Z,3.80
2022-07-30T22:19:14.688Z,4.43
2022-07-30T22:21:38.645Z,6.20
2022-07-30T22:24:03.396Z,4.10
2022-07-30T22:26:27.029Z,5.65
2022-07-30T22:28:52.652Z,3.97
2022-07-30T22:31:19.339Z,5.35
2022-07-30T22:33:42.935Z,5.88
2022-07-30T22:36:08.332Z,2.67
2022-07-30T22:38:33.510Z,5.00
2022-07-30T22:40:57.415Z,3.97
2022-07-30T22:43:21.246Z,4.55
2022-07-30T22:45:48.774Z,4.57
2022-07-30T22:48:15.004Z,7.40
2022-07-30T22:54:10.946Z,4.38
2022-07-30T22:56:07.321Z,5.35
2022-07-30T22:58:37.870Z,4.63
2022-07-30T23:01:01.569Z,3.17
2022-07-30T23:03:26.409Z,2.60
2022-07-30T23:05:55.255Z,3.80
2022-07-30T23:08:30.142Z,3.35
2022-07-30T23:10:54.626Z,6.22
2022-07-30T23:12:33.917Z,5.57
2022-07-30T23:13:18.426Z,4.78
2022-07-30T23:15:41.986Z,3.47
2022-07-30T23:18:05.701Z,4.65
2022-07-30T23:20:30.771Z,3.45
2022-07-30T23:22:54.357Z,3.95
2022-07-30T23:25:18.038Z,3.40
2022-07-30T23:27:43.071Z,3.53
2022-07-30T23:30:08.767Z,4.70
2022-07-30T23:32:32.532Z,4.32
2022-07-30T23:34:56.367Z,4.47
2022-07-30T23:37:21.762Z,8.48
2022-07-30T23:39:45.395Z,3.08
2022-07-30T23:42:09.155Z,6.03
2022-07-30T23:44:36.947Z,5.07
2022-07-30T23:47:01.267Z,2.85
2022-07-30T23:49:25.012Z,4.68
2022-07-30T23:51:48.667Z,4.85
2022-07-30T23:54:13.634Z,5.28
2022-07-30T23:56:37.229Z,3.83
2022-07-30T23:59:01.082Z,4.70
